Terminal Aerodrome Forecast
Issued by NWS Cleveland, OH

Home | Current Version | Previous Version | Graphics & Text | Print | Product List | Glossary On
Versions: 1 2 3 4 5 6 7 8 9 10 11 12 13 14
000
FTUS41 KCLE 281500 AAB
TAFTOL
TAF AMD
KTOL 281524Z 2815/2912 23010G18KT P6SM -SHRA SCT035 OVC070
      TEMPO 2815/2816 6SM -SHRA BKN028
     FM281600 25015G22KT P6SM VCSH SCT015 OVC025
     FM281900 26015G22KT P6SM SCT025 OVC080
     FM282300 26010KT P6SM SCT030 OVC200=

USA.gov is the U.S. government's official web portal to all federal, state and local government web resources and services.